Al Kharsaah — C6VG3 — position and weather

sailwx.info

Track history (hours):
 
Tides and Currents Weather Stations Pressure Air Temp Water Temp Dewpoint Dewpoint Depression Visibility Wind Speed Wind Dir Waves Ship Positions

Al Kharsaah

Last reported at 2016-Sep-17 10:34 UTC. Time now 2016-Sep-26 12:22 UTC.
Position N 01°15' E 103°59'.
Warning: this ship's position is 9 days out of date.

Length 315 m; draft 12.1 m.

Type: Ship (hazmat cat D). MMSI: 309333000.

Date/timePositionNaut miles runAvg speedWind from/ knotsBaromVisibWave heightAir tempDewpointWater temp
2016-Sep-17 10:34N 01°15' E 103°59'  
2016-Sep-10 00:04N 01°14' E 104°02'3 4.9
2016-Sep-09 23:29N 01°14' E 103°59'1010.1
2016-Sep-09 22:33N 01°10' E 103°50'5613.1
2016-Sep-09 18:16N 01°31' E 102°58'1013.8
2016-Sep-09 17:32N 01°37' E 102°50'1815.1
2016-Sep-09 16:19N 01°45' E 102°33'1216.0
2016-Sep-09 15:33N 01°49' E 102°22'2017.1
2016-Sep-09 14:23N 02°00' E 102°05'  
Track history (hours):
 
Tides and Currents Weather Stations Pressure Air Temp Water Temp Dewpoint Dewpoint Depression Visibility Wind Speed Wind Dir Waves Ship Positions

Al Kharsaah

Last reported at 2016-Sep-17 10:34 UTC. Time now 2016-Sep-26 12:22 UTC.
Position N 01°15' E 103°59'.
Warning: this ship's position is 9 days out of date.

Length 315 m; draft 12.1 m.

Type: Ship (hazmat cat D). MMSI: 309333000.

Date/timePositionNaut miles runAvg speedWind from/ knotsBaromVisibWave heightAir tempDewpointWater temp
2016-Sep-17 10:34N 01°15' E 103°59'  
2016-Sep-10 00:04N 01°14' E 104°02'3 4.9
2016-Sep-09 23:29N 01°14' E 103°59'1010.1
2016-Sep-09 22:33N 01°10' E 103°50'5613.1
2016-Sep-09 18:16N 01°31' E 102°58'1013.8
2016-Sep-09 17:32N 01°37' E 102°50'1815.1
2016-Sep-09 16:19N 01°45' E 102°33'1216.0
2016-Sep-09 15:33N 01°49' E 102°22'2017.1
2016-Sep-09 14:23N 02°00' E 102°05'  

Dump ship's entire track history